sensor_id;sensor_type;location;lat;lon;timestamp;P1;durP1;ratioP1;P2;durP2;ratioP2
2175;SDS011;1094;49.902;10.876;2023-06-10T00:01:35;32.60;;;30.10;;
2175;SDS011;1094;49.902;10.876;2023-06-10T00:04:01;32.73;;;30.13;;
2175;SDS011;1094;49.902;10.876;2023-06-10T00:06:27;30.30;;;28.30;;
2175;SDS011;1094;49.902;10.876;2023-06-10T00:09:00;32.13;;;29.77;;
2175;SDS011;1094;49.902;10.876;2023-06-10T00:11:26;30.33;;;28.13;;
2175;SDS011;1094;49.902;10.876;2023-06-10T00:13:52;30.90;;;28.60;;
2175;SDS011;1094;49.902;10.876;2023-06-10T00:16:18;31.67;;;29.00;;
2175;SDS011;1094;49.902;10.876;2023-06-10T00:18:44;32.37;;;29.80;;
2175;SDS011;1094;49.902;10.876;2023-06-10T00:21:10;30.67;;;28.27;;
2175;SDS011;1094;49.902;10.876;2023-06-10T00:23:38;32.77;;;30.47;;
2175;SDS011;1094;49.902;10.876;2023-06-10T00:26:04;32.63;;;30.23;;
2175;SDS011;1094;49.902;10.876;2023-06-10T00:28:30;32.57;;;30.37;;
2175;SDS011;1094;49.902;10.876;2023-06-10T00:30:56;32.90;;;30.60;;
2175;SDS011;1094;49.902;10.876;2023-06-10T00:33:22;32.07;;;29.80;;
2175;SDS011;1094;49.902;10.876;2023-06-10T00:35:48;33.13;;;30.47;;
2175;SDS011;1094;49.902;10.876;2023-06-10T00:38:14;31.80;;;29.50;;
2175;SDS011;1094;49.902;10.876;2023-06-10T00:40:40;34.33;;;31.73;;
2175;SDS011;1094;49.902;10.876;2023-06-10T00:43:07;32.70;;;30.30;;
2175;SDS011;1094;49.902;10.876;2023-06-10T00:45:33;34.30;;;31.30;;
2175;SDS011;1094;49.902;10.876;2023-06-10T00:47:59;33.23;;;30.83;;
2175;SDS011;1094;49.902;10.876;2023-06-10T00:50:25;34.00;;;31.23;;
2175;SDS011;1094;49.902;10.876;2023-06-10T00:52:51;32.67;;;30.27;;
2175;SDS011;1094;49.902;10.876;2023-06-10T00:55:18;34.17;;;31.20;;
2175;SDS011;1094;49.902;10.876;2023-06-10T00:57:45;33.63;;;31.03;;
2175;SDS011;1094;49.902;10.876;2023-06-10T01:00:13;33.57;;;31.23;;
2175;SDS011;1094;49.902;10.876;2023-06-10T01:02:40;33.40;;;30.80;;
2175;SDS011;1094;49.902;10.876;2023-06-10T01:05:06;34.50;;;31.80;;
2175;SDS011;1094;49.902;10.876;2023-06-10T01:10:34;32.57;;;30.20;;
2175;SDS011;1094;49.902;10.876;2023-06-10T01:13:02;34.03;;;31.63;;
2175;SDS011;1094;49.902;10.876;2023-06-10T01:15:29;34.73;;;31.97;;
2175;SDS011;1094;49.902;10.876;2023-06-10T01:18:02;34.07;;;31.70;;
2175;SDS011;1094;49.902;10.876;2023-06-10T01:20:29;32.70;;;30.40;;
2175;SDS011;1094;49.902;10.876;2023-06-10T01:22:57;34.23;;;31.73;;
2175;SDS011;1094;49.902;10.876;2023-06-10T01:25:23;34.97;;;32.10;;
2175;SDS011;1094;49.902;10.876;2023-06-10T01:27:59;34.27;;;31.50;;
2175;SDS011;1094;49.902;10.876;2023-06-10T01:30:29;35.13;;;32.40;;
2175;SDS011;1094;49.902;10.876;2023-06-10T01:32:58;34.10;;;31.50;;
2175;SDS011;1094;49.902;10.876;2023-06-10T01:35:25;33.17;;;30.67;;
2175;SDS011;1094;49.902;10.876;2023-06-10T01:37:52;33.03;;;30.50;;
2175;SDS011;1094;49.902;10.876;2023-06-10T01:40:18;33.83;;;31.23;;
2175;SDS011;1094;49.902;10.876;2023-06-10T01:42:45;31.83;;;29.53;;
2175;SDS011;1094;49.902;10.876;2023-06-10T01:45:11;35.33;;;32.40;;
2175;SDS011;1094;49.902;10.876;2023-06-10T01:47:37;36.37;;;33.40;;
2175;SDS011;1094;49.902;10.876;2023-06-10T01:50:03;36.40;;;33.53;;
2175;SDS011;1094;49.902;10.876;2023-06-10T01:52:29;35.67;;;33.00;;
2175;SDS011;1094;49.902;10.876;2023-06-10T01:54:55;35.27;;;32.67;;
2175;SDS011;1094;49.902;10.876;2023-06-10T01:57:21;36.37;;;33.63;;
2175;SDS011;1094;49.902;10.876;2023-06-10T01:59:47;34.90;;;31.63;;
2175;SDS011;1094;49.902;10.876;2023-06-10T02:02:13;33.80;;;31.20;;
2175;SDS011;1094;49.902;10.876;2023-06-10T02:04:39;36.23;;;33.53;;
2175;SDS011;1094;49.902;10.876;2023-06-10T02:07:05;34.77;;;32.00;;
2175;SDS011;1094;49.902;10.876;2023-06-10T02:09:31;36.40;;;33.30;;
2175;SDS011;1094;49.902;10.876;2023-06-10T02:12:00;35.20;;;32.60;;
2175;SDS011;1094;49.902;10.876;2023-06-10T02:14:25;34.70;;;31.90;;
2175;SDS011;1094;49.902;10.876;2023-06-10T02:16:51;34.70;;;32.00;;
2175;SDS011;1094;49.902;10.876;2023-06-10T02:19:21;34.23;;;31.53;;
2175;SDS011;1094;49.902;10.876;2023-06-10T02:21:47;34.83;;;32.13;;
2175;SDS011;1094;49.902;10.876;2023-06-10T02:24:13;36.23;;;33.10;;
2175;SDS011;1094;49.902;10.876;2023-06-10T02:26:39;34.73;;;31.90;;
2175;SDS011;1094;49.902;10.876;2023-06-10T02:29:05;35.50;;;32.47;;
2175;SDS011;1094;49.902;10.876;2023-06-10T02:31:31;34.80;;;32.10;;
2175;SDS011;1094;49.902;10.876;2023-06-10T02:34:00;35.03;;;32.30;;
2175;SDS011;1094;49.902;10.876;2023-06-10T02:36:26;34.73;;;32.03;;
2175;SDS011;1094;49.902;10.876;2023-06-10T02:38:52;33.60;;;31.00;;
2175;SDS011;1094;49.902;10.876;2023-06-10T02:41:18;34.60;;;31.93;;
2175;SDS011;1094;49.902;10.876;2023-06-10T02:43:46;35.73;;;33.07;;
2175;SDS011;1094;49.902;10.876;2023-06-10T02:46:12;35.63;;;32.83;;
2175;SDS011;1094;49.902;10.876;2023-06-10T02:48:43;35.07;;;32.23;;
2175;SDS011;1094;49.902;10.876;2023-06-10T02:51:10;35.70;;;33.10;;
2175;SDS011;1094;49.902;10.876;2023-06-10T02:53:36;34.40;;;31.80;;
2175;SDS011;1094;49.902;10.876;2023-06-10T02:56:02;35.13;;;32.57;;
2175;SDS011;1094;49.902;10.876;2023-06-10T02:58:28;36.00;;;33.00;;
2175;SDS011;1094;49.902;10.876;2023-06-10T03:00:54;34.77;;;32.23;;
2175;SDS011;1094;49.902;10.876;2023-06-10T03:03:20;35.80;;;33.13;;
2175;SDS011;1094;49.902;10.876;2023-06-10T03:05:47;34.80;;;31.97;;
2175;SDS011;1094;49.902;10.876;2023-06-10T03:08:13;36.23;;;33.27;;
2175;SDS011;1094;49.902;10.876;2023-06-10T03:10:39;36.37;;;33.47;;
2175;SDS011;1094;49.902;10.876;2023-06-10T03:13:05;35.30;;;32.63;;
2175;SDS011;1094;49.902;10.876;2023-06-10T03:15:31;38.53;;;35.40;;
2175;SDS011;1094;49.902;10.876;2023-06-10T03:17:58;36.10;;;33.50;;
2175;SDS011;1094;49.902;10.876;2023-06-10T03:20:25;36.50;;;33.40;;
2175;SDS011;1094;49.902;10.876;2023-06-10T03:22:52;37.30;;;34.20;;
2175;SDS011;1094;49.902;10.876;2023-06-10T03:25:18;35.60;;;32.90;;
2175;SDS011;1094;49.902;10.876;2023-06-10T03:27:45;35.93;;;33.03;;
2175;SDS011;1094;49.902;10.876;2023-06-10T03:30:12;36.10;;;33.43;;
2175;SDS011;1094;49.902;10.876;2023-06-10T03:32:38;37.27;;;34.17;;
2175;SDS011;1094;49.902;10.876;2023-06-10T03:35:06;37.27;;;34.43;;
2175;SDS011;1094;49.902;10.876;2023-06-10T03:37:32;35.87;;;33.13;;
2175;SDS011;1094;49.902;10.876;2023-06-10T03:39:58;37.23;;;34.37;;
2175;SDS011;1094;49.902;10.876;2023-06-10T03:42:24;37.73;;;34.73;;
2175;SDS011;1094;49.902;10.876;2023-06-10T03:44:50;35.97;;;33.17;;
2175;SDS011;1094;49.902;10.876;2023-06-10T03:47:16;35.80;;;32.90;;
2175;SDS011;1094;49.902;10.876;2023-06-10T03:49:42;36.77;;;33.90;;
2175;SDS011;1094;49.902;10.876;2023-06-10T03:52:07;36.17;;;33.37;;
2175;SDS011;1094;49.902;10.876;2023-06-10T03:54:33;36.60;;;33.60;;
2175;SDS011;1094;49.902;10.876;2023-06-10T03:57:00;35.57;;;32.97;;
2175;SDS011;1094;49.902;10.876;2023-06-10T03:59:26;36.03;;;32.97;;
2175;SDS011;1094;49.902;10.876;2023-06-10T04:01:52;33.97;;;31.43;;
2175;SDS011;1094;49.902;10.876;2023-06-10T04:04:18;33.27;;;30.77;;
2175;SDS011;1094;49.902;10.876;2023-06-10T04:06:44;32.53;;;30.13;;
2175;SDS011;1094;49.902;10.876;2023-06-10T04:09:10;34.27;;;31.47;;
2175;SDS011;1094;49.902;10.876;2023-06-10T04:11:36;32.57;;;30.13;;
2175;SDS011;1094;49.902;10.876;2023-06-10T04:14:02;33.07;;;30.70;;
2175;SDS011;1094;49.902;10.876;2023-06-10T04:16:28;31.93;;;29.73;;
2175;SDS011;1094;49.902;10.876;2023-06-10T04:18:54;31.43;;;29.30;;
2175;SDS011;1094;49.902;10.876;2023-06-10T04:21:20;32.30;;;29.90;;
2175;SDS011;1094;49.902;10.876;2023-06-10T04:23:47;32.23;;;29.80;;
2175;SDS011;1094;49.902;10.876;2023-06-10T04:26:13;32.20;;;29.80;;
2175;SDS011;1094;49.902;10.876;2023-06-10T04:28:39;32.10;;;29.90;;
2175;SDS011;1094;49.902;10.876;2023-06-10T04:31:05;31.97;;;29.60;;
2175;SDS011;1094;49.902;10.876;2023-06-10T04:33:31;30.83;;;28.73;;
2175;SDS011;1094;49.902;10.876;2023-06-10T04:35:57;31.83;;;29.63;;
2175;SDS011;1094;49.902;10.876;2023-06-10T04:38:23;33.63;;;31.17;;
2175;SDS011;1094;49.902;10.876;2023-06-10T04:40:49;32.13;;;29.90;;
2175;SDS011;1094;49.902;10.876;2023-06-10T04:43:15;30.00;;;27.90;;
2175;SDS011;1094;49.902;10.876;2023-06-10T04:45:41;30.23;;;28.23;;
2175;SDS011;1094;49.902;10.876;2023-06-10T04:48:09;31.90;;;29.70;;
2175;SDS011;1094;49.902;10.876;2023-06-10T04:50:36;31.03;;;28.93;;
2175;SDS011;1094;49.902;10.876;2023-06-10T04:53:02;30.90;;;28.60;;
2175;SDS011;1094;49.902;10.876;2023-06-10T04:55:28;29.97;;;27.97;;
2175;SDS011;1094;49.902;10.876;2023-06-10T04:57:54;29.90;;;27.87;;
2175;SDS011;1094;49.902;10.876;2023-06-10T05:00:20;31.13;;;29.10;;
2175;SDS011;1094;49.902;10.876;2023-06-10T05:02:47;30.60;;;28.63;;
2175;SDS011;1094;49.902;10.876;2023-06-10T05:05:15;28.40;;;26.50;;
2175;SDS011;1094;49.902;10.876;2023-06-10T05:07:41;29.27;;;27.03;;
2175;SDS011;1094;49.902;10.876;2023-06-10T05:10:07;28.50;;;26.70;;
2175;SDS011;1094;49.902;10.876;2023-06-10T05:12:33;28.93;;;27.10;;
2175;SDS011;1094;49.902;10.876;2023-06-10T05:14:59;29.37;;;27.47;;
2175;SDS011;1094;49.902;10.876;2023-06-10T05:17:25;30.07;;;28.07;;
2175;SDS011;1094;49.902;10.876;2023-06-10T05:19:51;28.60;;;26.63;;
2175;SDS011;1094;49.902;10.876;2023-06-10T05:22:17;27.63;;;25.80;;
2175;SDS011;1094;49.902;10.876;2023-06-10T05:24:44;29.53;;;27.33;;
2175;SDS011;1094;49.902;10.876;2023-06-10T05:27:10;28.80;;;26.90;;
2175;SDS011;1094;49.902;10.876;2023-06-10T05:29:37;27.73;;;26.03;;
2175;SDS011;1094;49.902;10.876;2023-06-10T05:32:03;28.07;;;26.27;;
2175;SDS011;1094;49.902;10.876;2023-06-10T05:34:29;27.10;;;25.43;;
2175;SDS011;1094;49.902;10.876;2023-06-10T05:36:55;28.50;;;26.50;;
2175;SDS011;1094;49.902;10.876;2023-06-10T05:39:22;27.17;;;25.40;;
2175;SDS011;1094;49.902;10.876;2023-06-10T05:41:48;27.97;;;25.97;;
2175;SDS011;1094;49.902;10.876;2023-06-10T05:44:14;28.87;;;26.60;;
2175;SDS011;1094;49.902;10.876;2023-06-10T05:46:40;26.50;;;24.90;;
2175;SDS011;1094;49.902;10.876;2023-06-10T05:49:06;26.57;;;24.87;;
2175;SDS011;1094;49.902;10.876;2023-06-10T05:51:32;28.67;;;26.23;;
2175;SDS011;1094;49.902;10.876;2023-06-10T05:53:58;27.57;;;25.63;;
2175;SDS011;1094;49.902;10.876;2023-06-10T05:56:24;27.60;;;25.90;;
2175;SDS011;1094;49.902;10.876;2023-06-10T05:58:51;27.37;;;25.77;;
2175;SDS011;1094;49.902;10.876;2023-06-10T06:01:17;26.73;;;25.00;;
2175;SDS011;1094;49.902;10.876;2023-06-10T06:03:43;26.67;;;24.80;;
2175;SDS011;1094;49.902;10.876;2023-06-10T06:06:09;24.77;;;23.17;;
2175;SDS011;1094;49.902;10.876;2023-06-10T06:08:35;24.23;;;22.73;;
2175;SDS011;1094;49.902;10.876;2023-06-10T06:11:01;25.60;;;24.00;;
2175;SDS011;1094;49.902;10.876;2023-06-10T06:13:27;24.67;;;23.10;;
2175;SDS011;1094;49.902;10.876;2023-06-10T06:15:54;24.57;;;22.87;;
2175;SDS011;1094;49.902;10.876;2023-06-10T06:18:20;24.80;;;23.30;;
2175;SDS011;1094;49.902;10.876;2023-06-10T06:20:46;24.37;;;22.67;;
2175;SDS011;1094;49.902;10.876;2023-06-10T06:23:12;24.40;;;23.00;;
2175;SDS011;1094;49.902;10.876;2023-06-10T06:25:38;23.47;;;21.97;;
2175;SDS011;1094;49.902;10.876;2023-06-10T06:28:05;24.20;;;22.50;;
2175;SDS011;1094;49.902;10.876;2023-06-10T06:30:32;23.50;;;22.10;;
2175;SDS011;1094;49.902;10.876;2023-06-10T06:32:58;23.43;;;21.83;;
2175;SDS011;1094;49.902;10.876;2023-06-10T06:35:24;22.93;;;21.53;;
2175;SDS011;1094;49.902;10.876;2023-06-10T06:37:50;23.37;;;21.87;;
2175;SDS011;1094;49.902;10.876;2023-06-10T06:40:16;23.20;;;21.50;;
2175;SDS011;1094;49.902;10.876;2023-06-10T06:42:42;23.47;;;21.97;;
2175;SDS011;1094;49.902;10.876;2023-06-10T06:45:08;22.00;;;20.60;;
2175;SDS011;1094;49.902;10.876;2023-06-10T06:47:34;22.10;;;20.50;;
2175;SDS011;1094;49.902;10.876;2023-06-10T06:50:00;23.13;;;21.50;;
2175;SDS011;1094;49.902;10.876;2023-06-10T06:52:26;22.00;;;20.50;;
2175;SDS011;1094;49.902;10.876;2023-06-10T06:54:52;22.10;;;20.60;;
2175;SDS011;1094;49.902;10.876;2023-06-10T06:57:18;20.40;;;19.20;;
2175;SDS011;1094;49.902;10.876;2023-06-10T06:59:44;20.58;;;19.38;;
2175;SDS011;1094;49.902;10.876;2023-06-10T07:02:10;20.98;;;19.67;;
2175;SDS011;1094;49.902;10.876;2023-06-10T07:04:36;21.77;;;20.48;;
2175;SDS011;1094;49.902;10.876;2023-06-10T07:07:02;20.17;;;18.98;;
2175;SDS011;1094;49.902;10.876;2023-06-10T07:09:28;21.52;;;20.25;;
2175;SDS011;1094;49.902;10.876;2023-06-10T07:11:54;21.40;;;19.95;;
2175;SDS011;1094;49.902;10.876;2023-06-10T07:14:20;20.45;;;19.33;;
2175;SDS011;1094;49.902;10.876;2023-06-10T07:16:46;20.70;;;19.50;;
2175;SDS011;1094;49.902;10.876;2023-06-10T07:19:13;19.88;;;18.67;;
2175;SDS011;1094;49.902;10.876;2023-06-10T07:21:39;20.10;;;18.70;;
2175;SDS011;1094;49.902;10.876;2023-06-10T07:24:05;19.83;;;18.83;;
2175;SDS011;1094;49.902;10.876;2023-06-10T07:26:31;19.42;;;18.42;;
2175;SDS011;1094;49.902;10.876;2023-06-10T07:28:57;19.55;;;18.45;;
2175;SDS011;1094;49.902;10.876;2023-06-10T07:31:23;19.27;;;18.27;;
2175;SDS011;1094;49.902;10.876;2023-06-10T07:33:49;19.33;;;18.33;;
2175;SDS011;1094;49.902;10.876;2023-06-10T07:36:15;18.95;;;17.95;;
2175;SDS011;1094;49.902;10.876;2023-06-10T07:38:41;19.10;;;17.92;;
2175;SDS011;1094;49.902;10.876;2023-06-10T07:41:08;18.48;;;17.58;;
2175;SDS011;1094;49.902;10.876;2023-06-10T07:43:34;18.60;;;17.63;;
2175;SDS011;1094;49.902;10.876;2023-06-10T07:46:00;18.52;;;17.52;;
2175;SDS011;1094;49.902;10.876;2023-06-10T07:48:26;19.70;;;18.35;;
2175;SDS011;1094;49.902;10.876;2023-06-10T07:50:52;19.27;;;18.17;;
2175;SDS011;1094;49.902;10.876;2023-06-10T07:53:18;18.88;;;17.73;;
2175;SDS011;1094;49.902;10.876;2023-06-10T07:55:43;18.70;;;17.70;;
2175;SDS011;1094;49.902;10.876;2023-06-10T07:58:09;18.30;;;17.33;;
2175;SDS011;1094;49.902;10.876;2023-06-10T08:00:35;17.98;;;17.08;;
2175;SDS011;1094;49.902;10.876;2023-06-10T08:03:02;18.02;;;17.02;;
2175;SDS011;1094;49.902;10.876;2023-06-10T08:05:28;18.15;;;17.30;;
2175;SDS011;1094;49.902;10.876;2023-06-10T08:07:54;17.63;;;16.73;;
2175;SDS011;1094;49.902;10.876;2023-06-10T08:10:20;17.60;;;16.70;;
2175;SDS011;1094;49.902;10.876;2023-06-10T08:12:46;18.35;;;17.08;;
2175;SDS011;1094;49.902;10.876;2023-06-10T08:15:12;18.10;;;17.20;;
2175;SDS011;1094;49.902;10.876;2023-06-10T08:17:38;17.98;;;17.08;;
2175;SDS011;1094;49.902;10.876;2023-06-10T08:20:05;18.00;;;17.00;;
2175;SDS011;1094;49.902;10.876;2023-06-10T08:22:31;17.90;;;17.00;;
2175;SDS011;1094;49.902;10.876;2023-06-10T08:24:57;18.50;;;17.50;;
2175;SDS011;1094;49.902;10.876;2023-06-10T08:27:23;18.13;;;17.23;;
2175;SDS011;1094;49.902;10.876;2023-06-10T08:29:49;17.95;;;17.05;;
2175;SDS011;1094;49.902;10.876;2023-06-10T08:32:15;18.17;;;17.30;;
2175;SDS011;1094;49.902;10.876;2023-06-10T08:34:41;18.75;;;17.52;;
2175;SDS011;1094;49.902;10.876;2023-06-10T08:37:07;18.25;;;17.25;;
2175;SDS011;1094;49.902;10.876;2023-06-10T08:39:33;18.02;;;17.13;;
2175;SDS011;1094;49.902;10.876;2023-06-10T08:44:44;17.77;;;16.88;;
2175;SDS011;1094;49.902;10.876;2023-06-10T08:49:38;18.00;;;17.10;;
2175;SDS011;1094;49.902;10.876;2023-06-10T08:52:04;17.85;;;16.85;;
2175;SDS011;1094;49.902;10.876;2023-06-10T08:54:32;18.25;;;17.35;;
2175;SDS011;1094;49.902;10.876;2023-06-10T08:57:02;18.58;;;17.38;;
2175;SDS011;1094;49.902;10.876;2023-06-10T08:59:30;18.65;;;17.65;;
2175;SDS011;1094;49.902;10.876;2023-06-10T09:01:56;18.55;;;17.55;;
2175;SDS011;1094;49.902;10.876;2023-06-10T09:04:23;19.23;;;18.23;;
2175;SDS011;1094;49.902;10.876;2023-06-10T09:06:49;19.23;;;18.05;;
2175;SDS011;1094;49.902;10.876;2023-06-10T09:09:16;18.80;;;17.80;;
2175;SDS011;1094;49.902;10.876;2023-06-10T09:11:44;18.38;;;17.38;;
2175;SDS011;1094;49.902;10.876;2023-06-10T09:14:10;17.95;;;17.05;;
2175;SDS011;1094;49.902;10.876;2023-06-10T09:16:37;18.67;;;17.67;;
2175;SDS011;1094;49.902;10.876;2023-06-10T09:19:04;19.00;;;18.00;;
2175;SDS011;1094;49.902;10.876;2023-06-10T09:21:33;18.50;;;17.60;;
2175;SDS011;1094;49.902;10.876;2023-06-10T09:23:59;19.03;;;17.60;;
2175;SDS011;1094;49.902;10.876;2023-06-10T09:26:28;18.75;;;17.65;;
2175;SDS011;1094;49.902;10.876;2023-06-10T09:29:02;18.30;;;17.30;;
2175;SDS011;1094;49.902;10.876;2023-06-10T09:31:29;18.48;;;17.23;;
2175;SDS011;1094;49.902;10.876;2023-06-10T09:34:04;18.40;;;17.50;;
2175;SDS011;1094;49.902;10.876;2023-06-10T09:36:29;18.20;;;17.20;;
2175;SDS011;1094;49.902;10.876;2023-06-10T09:38:56;18.50;;;17.50;;
2175;SDS011;1094;49.902;10.876;2023-06-10T09:41:27;18.00;;;17.10;;
2175;SDS011;1094;49.902;10.876;2023-06-10T09:43:57;17.85;;;16.85;;
2175;SDS011;1094;49.902;10.876;2023-06-10T09:46:23;17.17;;;16.38;;
2175;SDS011;1094;49.902;10.876;2023-06-10T09:48:49;17.70;;;16.80;;
2175;SDS011;1094;49.902;10.876;2023-06-10T09:51:15;17.52;;;16.73;;
2175;SDS011;1094;49.902;10.876;2023-06-10T09:53:53;17.50;;;16.60;;
2175;SDS011;1094;49.902;10.876;2023-06-10T09:56:19;17.67;;;16.80;;
2175;SDS011;1094;49.902;10.876;2023-06-10T09:58:46;17.77;;;16.80;;
2175;SDS011;1094;49.902;10.876;2023-06-10T10:01:13;18.30;;;17.30;;
2175;SDS011;1094;49.902;10.876;2023-06-10T10:03:43;17.42;;;16.52;;
2175;SDS011;1094;49.902;10.876;2023-06-10T10:06:11;17.75;;;16.55;;
2175;SDS011;1094;49.902;10.876;2023-06-10T10:08:37;17.65;;;16.67;;
2175;SDS011;1094;49.902;10.876;2023-06-10T10:11:03;18.83;;;17.83;;
2175;SDS011;1094;49.902;10.876;2023-06-10T10:13:29;18.92;;;17.95;;
2175;SDS011;1094;49.902;10.876;2023-06-10T10:15:57;17.90;;;17.00;;
2175;SDS011;1094;49.902;10.876;2023-06-10T10:18:25;18.40;;;17.40;;
2175;SDS011;1094;49.902;10.876;2023-06-10T10:20:55;19.00;;;17.90;;
2175;SDS011;1094;49.902;10.876;2023-06-10T10:23:34;18.93;;;17.77;;
2175;SDS011;1094;49.902;10.876;2023-06-10T10:26:00;18.13;;;17.23;;
2175;SDS011;1094;49.902;10.876;2023-06-10T10:28:31;18.33;;;17.30;;
2175;SDS011;1094;49.902;10.876;2023-06-10T10:31:01;17.60;;;16.80;;
2175;SDS011;1094;49.902;10.876;2023-06-10T10:33:36;18.83;;;17.83;;
2175;SDS011;1094;49.902;10.876;2023-06-10T10:36:06;19.47;;;18.37;;
2175;SDS011;1094;49.902;10.876;2023-06-10T10:38:32;19.57;;;18.57;;
2175;SDS011;1094;49.902;10.876;2023-06-10T10:40:59;18.90;;;17.90;;
2175;SDS011;1094;49.902;10.876;2023-06-10T10:43:26;18.20;;;17.30;;
2175;SDS011;1094;49.902;10.876;2023-06-10T10:46:02;18.50;;;17.40;;
2175;SDS011;1094;49.902;10.876;2023-06-10T10:48:36;18.40;;;17.30;;
2175;SDS011;1094;49.902;10.876;2023-06-10T10:51:03;18.77;;;17.67;;
2175;SDS011;1094;49.902;10.876;2023-06-10T10:53:29;18.27;;;17.27;;
2175;SDS011;1094;49.902;10.876;2023-06-10T10:56:14;19.03;;;17.93;;
2175;SDS011;1094;49.902;10.876;2023-06-10T10:58:40;19.53;;;18.37;;
2175;SDS011;1094;49.902;10.876;2023-06-10T11:01:13;19.40;;;18.30;;
2175;SDS011;1094;49.902;10.876;2023-06-10T11:03:43;18.13;;;17.27;;
2175;SDS011;1094;49.902;10.876;2023-06-10T11:06:13;19.17;;;17.87;;
2175;SDS011;1094;49.902;10.876;2023-06-10T11:11:23;18.37;;;17.43;;
2175;SDS011;1094;49.902;10.876;2023-06-10T11:16:41;18.70;;;17.60;;
2175;SDS011;1094;49.902;10.876;2023-06-10T11:19:07;18.33;;;17.17;;
2175;SDS011;1094;49.902;10.876;2023-06-10T11:21:44;18.47;;;17.47;;
2175;SDS011;1094;49.902;10.876;2023-06-10T11:24:13;17.97;;;16.97;;
2175;SDS011;1094;49.902;10.876;2023-06-10T11:26:43;17.70;;;16.70;;
2175;SDS011;1094;49.902;10.876;2023-06-10T11:29:10;17.77;;;16.73;;
2175;SDS011;1094;49.902;10.876;2023-06-10T11:31:40;17.20;;;16.10;;
2175;SDS011;1094;49.902;10.876;2023-06-10T11:34:07;17.67;;;16.77;;
2175;SDS011;1094;49.902;10.876;2023-06-10T11:36:34;18.90;;;18.00;;
2175;SDS011;1094;49.902;10.876;2023-06-10T11:39:01;18.80;;;17.77;;
2175;SDS011;1094;49.902;10.876;2023-06-10T11:41:28;18.90;;;17.80;;
2175;SDS011;1094;49.902;10.876;2023-06-10T11:43:54;17.93;;;16.97;;
2175;SDS011;1094;49.902;10.876;2023-06-10T11:46:23;18.10;;;17.03;;
2175;SDS011;1094;49.902;10.876;2023-06-10T11:48:53;18.60;;;17.70;;
2175;SDS011;1094;49.902;10.876;2023-06-10T11:51:19;19.60;;;18.50;;
2175;SDS011;1094;49.902;10.876;2023-06-10T11:53:49;19.80;;;18.70;;
2175;SDS011;1094;49.902;10.876;2023-06-10T11:56:28;20.17;;;19.17;;
2175;SDS011;1094;49.902;10.876;2023-06-10T11:58:55;19.93;;;18.93;;
2175;SDS011;1094;49.902;10.876;2023-06-10T12:01:22;20.97;;;19.87;;
2175;SDS011;1094;49.902;10.876;2023-06-10T12:04:02;20.47;;;19.37;;
2175;SDS011;1094;49.902;10.876;2023-06-10T12:09:29;20.03;;;19.03;;
2175;SDS011;1094;49.902;10.876;2023-06-10T12:11:58;20.30;;;18.90;;
2175;SDS011;1094;49.902;10.876;2023-06-10T12:17:09;19.40;;;18.20;;
2175;SDS011;1094;49.902;10.876;2023-06-10T12:19:38;19.00;;;18.00;;
2175;SDS011;1094;49.902;10.876;2023-06-10T12:22:04;17.97;;;17.07;;
2175;SDS011;1094;49.902;10.876;2023-06-10T12:24:30;18.10;;;17.20;;
2175;SDS011;1094;49.902;10.876;2023-06-10T12:26:57;18.20;;;17.20;;
2175;SDS011;1094;49.902;10.876;2023-06-10T12:29:23;18.50;;;17.40;;
2175;SDS011;1094;49.902;10.876;2023-06-10T12:31:56;18.20;;;17.20;;
2175;SDS011;1094;49.902;10.876;2023-06-10T12:34:33;18.60;;;17.60;;
2175;SDS011;1094;49.902;10.876;2023-06-10T12:37:00;18.80;;;17.57;;
2175;SDS011;1094;49.902;10.876;2023-06-10T12:39:27;19.40;;;18.30;;
2175;SDS011;1094;49.902;10.876;2023-06-10T12:41:53;19.60;;;18.57;;
2175;SDS011;1094;49.902;10.876;2023-06-10T12:44:29;20.60;;;19.30;;
2175;SDS011;1094;49.902;10.876;2023-06-10T12:46:55;20.87;;;19.67;;
2175;SDS011;1094;49.902;10.876;2023-06-10T12:49:21;21.60;;;20.20;;
2175;SDS011;1094;49.902;10.876;2023-06-10T12:51:47;21.13;;;19.80;;
2175;SDS011;1094;49.902;10.876;2023-06-10T12:54:13;21.80;;;20.20;;
2175;SDS011;1094;49.902;10.876;2023-06-10T12:56:39;20.73;;;19.53;;
2175;SDS011;1094;49.902;10.876;2023-06-10T12:59:05;20.67;;;19.30;;
2175;SDS011;1094;49.902;10.876;2023-06-10T13:01:31;20.57;;;19.47;;
2175;SDS011;1094;49.902;10.876;2023-06-10T13:03:58;20.30;;;19.30;;
2175;SDS011;1094;49.902;10.876;2023-06-10T13:06:24;20.57;;;19.37;;
2175;SDS011;1094;49.902;10.876;2023-06-10T13:08:50;20.00;;;18.90;;
2175;SDS011;1094;49.902;10.876;2023-06-10T13:11:16;21.50;;;20.07;;
2175;SDS011;1094;49.902;10.876;2023-06-10T13:13:42;23.20;;;21.40;;
2175;SDS011;1094;49.902;10.876;2023-06-10T13:16:08;22.13;;;20.50;;
2175;SDS011;1094;49.902;10.876;2023-06-10T13:18:34;21.90;;;20.63;;
2175;SDS011;1094;49.902;10.876;2023-06-10T13:21:05;22.60;;;21.00;;
2175;SDS011;1094;49.902;10.876;2023-06-10T13:23:31;23.07;;;21.37;;
2175;SDS011;1094;49.902;10.876;2023-06-10T13:25:57;22.73;;;21.10;;
2175;SDS011;1094;49.902;10.876;2023-06-10T13:28:23;23.47;;;22.03;;
2175;SDS011;1094;49.902;10.876;2023-06-10T13:30:50;21.40;;;20.00;;
2175;SDS011;1094;49.902;10.876;2023-06-10T13:33:16;21.30;;;20.00;;
2175;SDS011;1094;49.902;10.876;2023-06-10T13:35:42;21.73;;;20.53;;
2175;SDS011;1094;49.902;10.876;2023-06-10T13:38:08;23.10;;;21.60;;
2175;SDS011;1094;49.902;10.876;2023-06-10T13:40:34;23.20;;;21.80;;
2175;SDS011;1094;49.902;10.876;2023-06-10T13:42:59;22.53;;;21.13;;
2175;SDS011;1094;49.902;10.876;2023-06-10T13:45:26;21.23;;;19.80;;
2175;SDS011;1094;49.902;10.876;2023-06-10T13:47:53;20.97;;;19.87;;
2175;SDS011;1094;49.902;10.876;2023-06-10T13:50:18;20.10;;;19.00;;
2175;SDS011;1094;49.902;10.876;2023-06-10T13:52:45;20.47;;;19.27;;
2175;SDS011;1094;49.902;10.876;2023-06-10T13:55:11;24.00;;;22.07;;
2175;SDS011;1094;49.902;10.876;2023-06-10T13:57:37;25.27;;;23.43;;
2175;SDS011;1094;49.902;10.876;2023-06-10T14:00:03;23.33;;;21.90;;
2175;SDS011;1094;49.902;10.876;2023-06-10T14:02:29;23.40;;;22.10;;
2175;SDS011;1094;49.902;10.876;2023-06-10T14:04:55;22.30;;;21.10;;
2175;SDS011;1094;49.902;10.876;2023-06-10T14:07:21;23.50;;;22.00;;
2175;SDS011;1094;49.902;10.876;2023-06-10T14:09:47;23.63;;;22.23;;
2175;SDS011;1094;49.902;10.876;2023-06-10T14:12:13;23.80;;;22.40;;
2175;SDS011;1094;49.902;10.876;2023-06-10T14:14:39;25.07;;;23.20;;
2175;SDS011;1094;49.902;10.876;2023-06-10T14:17:05;25.73;;;24.03;;
2175;SDS011;1094;49.902;10.876;2023-06-10T14:19:31;24.30;;;22.70;;
2175;SDS011;1094;49.902;10.876;2023-06-10T14:21:57;25.73;;;23.90;;
2175;SDS011;1094;49.902;10.876;2023-06-10T14:24:23;26.70;;;24.73;;
2175;SDS011;1094;49.902;10.876;2023-06-10T14:26:49;27.07;;;25.17;;
2175;SDS011;1094;49.902;10.876;2023-06-10T14:29:15;26.67;;;24.87;;
2175;SDS011;1094;49.902;10.876;2023-06-10T14:31:43;26.73;;;24.73;;
2175;SDS011;1094;49.902;10.876;2023-06-10T14:34:09;25.53;;;23.93;;
2175;SDS011;1094;49.902;10.876;2023-06-10T14:36:34;25.40;;;23.77;;
2175;SDS011;1094;49.902;10.876;2023-06-10T14:39:02;25.80;;;24.07;;
2175;SDS011;1094;49.902;10.876;2023-06-10T14:41:27;26.20;;;24.30;;
2175;SDS011;1094;49.902;10.876;2023-06-10T14:43:53;26.10;;;24.30;;
2175;SDS011;1094;49.902;10.876;2023-06-10T14:46:19;25.20;;;23.50;;
2175;SDS011;1094;49.902;10.876;2023-06-10T14:48:46;27.20;;;25.23;;
2175;SDS011;1094;49.902;10.876;2023-06-10T14:51:12;24.30;;;22.73;;